Time;durP1;ratioP1;P1;durP2;ratioP2;P2;SDS_P1;SDS_P2;PMS_P1;PMS_P2;Temp;Humidity;BMP_temperature;BMP_pressure;BME280_temperature;BME280_humidity;BME280_pressure;Samples;Min_cycle;Max_cycle;Signal;HPM_P1;HPM_P2
2022/06/06 00:00:48;;;;;;;6.85;5.82;;;;;;;-141.50;100.00;63355.56;5038917;28;20141;-81
2022/06/06 00:03:19;;;;;;;9.70;6.00;;;;;;;-141.50;100.00;63355.56;5051590;28;20575;-79
2022/06/06 00:05:48;;;;;;;12.65;5.97;;;;;;;-141.50;100.00;63355.56;5052998;28;20113;-79
2022/06/06 00:08:17;;;;;;;7.57;4.60;;;;;;;-141.50;100.00;63355.56;5071875;28;20056;-79
2022/06/06 00:10:45;;;;;;;6.68;4.97;;;;;;;-141.50;100.00;63355.56;5070872;28;20160;-80
2022/06/06 00:13:15;;;;;;;5.97;3.92;;;;;;;-141.50;100.00;63355.56;5071156;28;20059;-79
2022/06/06 00:15:42;;;;;;;6.35;3.58;;;;;;;-141.50;100.00;63355.56;5070658;28;20056;-80
2022/06/06 00:18:09;;;;;;;7.05;3.80;;;;;;;-141.50;100.00;63355.56;5070608;28;20135;-81
2022/06/06 00:20:35;;;;;;;5.30;3.55;;;;;;;-141.50;100.00;63355.56;5070988;28;20607;-79
2022/06/06 00:23:02;;;;;;;10.93;3.47;;;;;;;-141.50;100.00;63355.56;5066866;28;20045;-79
2022/06/06 00:25:29;;;;;;;5.57;3.22;;;;;;;-141.50;100.00;63355.56;5052227;28;20080;-79
2022/06/06 00:27:55;;;;;;;4.60;3.17;;;;;;;-141.50;100.00;63355.56;5053282;28;20140;-78
2022/06/06 00:30:22;;;;;;;4.90;3.10;;;;;;;-141.50;100.00;63355.56;5069591;28;20048;-79
2022/06/06 00:35:34;;;;;;;4.32;3.10;;;;;;;-141.50;100.00;63355.56;5079956;28;20053;-78
2022/06/06 00:38:03;;;;;;;4.72;3.50;;;;;;;-141.50;100.00;63355.56;5065672;28;20064;-77
2022/06/06 00:40:30;;;;;;;9.95;3.40;;;;;;;-141.50;100.00;63355.56;5055178;28;20048;-79
2022/06/06 00:43:00;;;;;;;5.22;3.13;;;;;;;-141.50;100.00;63355.56;5034966;28;20585;-79
2022/06/06 00:45:35;;;;;;;6.72;3.30;;;;;;;-141.50;100.00;63355.56;5040338;28;20080;-80
2022/06/06 00:48:15;;;;;;;;;;;;;;;-141.50;100.00;63355.56;5069987;28;20094;-79
2022/06/06 00:50:59;;;;;;;5.68;3.38;;;;;;;-141.50;100.00;63355.56;5073575;28;20039;-77
2022/06/06 00:53:28;;;;;;;7.85;3.28;;;;;;;-141.50;100.00;63355.56;5075398;28;20100;-77
2022/06/06 00:56:08;;;;;;;4.75;3.30;;;;;;;-141.50;100.00;63355.56;5054931;28;20139;-77
2022/06/06 00:58:36;;;;;;;5.78;3.50;;;;;;;-141.50;100.00;63355.56;5075898;28;20097;-77
2022/06/06 01:01:07;;;;;;;4.30;3.40;;;;;;;-141.50;100.00;63355.56;5073034;28;20082;-81
2022/06/06 01:03:35;;;;;;;5.50;3.22;;;;;;;-141.50;100.00;63355.56;5037780;28;20053;-81
2022/06/06 01:06:02;;;;;;;8.10;3.50;;;;;;;-141.50;100.00;63355.56;5035295;28;20053;-82
2022/06/06 01:08:30;;;;;;;5.25;3.50;;;;;;;-141.50;100.00;63355.56;5053402;28;20458;-80
2022/06/06 01:10:57;;;;;;;6.05;3.42;;;;;;;-141.50;100.00;63355.56;5055764;28;20053;-81
2022/06/06 01:13:27;;;;;;;4.85;3.50;;;;;;;-141.50;100.00;63355.56;5040234;28;20140;-81
2022/06/06 01:15:59;;;;;;;6.47;3.38;;;;;;;-141.50;100.00;63355.56;5078442;28;20087;-81
2022/06/06 01:19:02;;;;;;;8.40;3.53;;;;;;;-141.50;100.00;63355.56;5058446;28;20052;-81
2022/06/06 01:22:10;;;;;;;9.02;3.60;;;;;;;-141.50;100.00;63355.56;5071332;28;20044;-79
2022/06/06 01:24:55;;;;;;;6.18;3.65;;;;;;;-141.50;100.00;63355.56;5070846;28;20131;-79
2022/06/06 01:27:51;;;;;;;7.03;3.60;;;;;;;-141.50;100.00;63355.56;5055631;28;20513;-79
2022/06/06 01:30:25;;;;;;;6.40;3.70;;;;;;;-141.50;100.00;63355.56;5076756;28;20076;-80
2022/06/06 01:32:57;;;;;;;6.50;3.80;;;;;;;-141.50;100.00;63355.56;5074900;28;20108;-80
2022/06/06 01:35:34;;;;;;;7.45;4.03;;;;;;;-141.50;100.00;63355.56;5053249;28;20084;-80
2022/06/06 01:38:02;;;;;;;6.33;3.43;;;;;;;-141.50;100.00;63355.56;5071397;28;20113;-80
2022/06/06 01:40:42;;;;;;;6.95;3.90;;;;;;;-141.50;100.00;63355.56;5055115;28;20088;-80
2022/06/06 01:43:21;;;;;;;5.35;3.80;;;;;;;-141.50;100.00;63355.56;5074164;28;20081;-80
2022/06/06 01:46:05;;;;;;;5.80;3.88;;;;;;;-141.50;100.00;63355.56;5074809;28;20139;-79
2022/06/06 01:48:39;;;;;;;4.47;3.47;;;;;;;-141.50;100.00;63355.56;5057204;28;20099;-81
2022/06/06 01:51:15;;;;;;;5.22;3.28;;;;;;;-141.50;100.00;63355.56;5073382;28;20075;-79
2022/06/06 01:53:42;;;;;;;;;;;;;;;-141.50;100.00;63355.56;5057239;28;20136;-80
2022/06/06 01:56:14;;;;;;;6.93;3.30;;;;;;;-141.50;100.00;63355.56;5057264;28;19920;-81
2022/06/06 01:58:44;;;;;;;4.35;3.38;;;;;;;-141.50;100.00;63355.56;5076189;28;20059;-81
2022/06/06 02:01:10;;;;;;;7.22;3.20;;;;;;;-141.50;100.00;63355.56;5058061;28;20051;-80
2022/06/06 02:03:40;;;;;;;7.38;3.38;;;;;;;-141.50;100.00;63355.56;5057116;28;20048;-81
2022/06/06 02:06:07;;;;;;;7.57;3.30;;;;;;;-141.50;100.00;63355.56;5056233;28;20076;-79
2022/06/06 02:08:36;;;;;;;5.63;3.50;;;;;;;-141.50;100.00;63355.56;5052063;28;20152;-79
2022/06/06 02:11:03;;;;;;;6.05;2.95;;;;;;;-141.50;100.00;63355.56;5070094;28;20481;-79
2022/06/06 02:13:29;;;;;;;4.50;2.97;;;;;;;-141.50;100.00;63355.56;5084014;28;20072;-78
2022/06/06 02:15:57;;;;;;;4.60;2.58;;;;;;;-141.50;100.00;63355.56;5084733;28;20048;-77
2022/06/06 02:18:24;;;;;;;7.82;2.67;;;;;;;-141.50;100.00;63355.56;5079576;28;20056;-79
2022/06/06 02:20:50;;;;;;;3.40;2.60;;;;;;;-141.50;100.00;63355.56;5078042;28;20078;-80
2022/06/06 02:23:17;;;;;;;5.00;2.85;;;;;;;-141.50;100.00;63355.56;5057984;28;20045;-80
2022/06/06 02:25:48;;;;;;;9.23;3.28;;;;;;;-141.50;100.00;63355.56;5078104;28;20048;-79
2022/06/06 02:28:15;;;;;;;3.88;2.78;;;;;;;-141.50;100.00;63355.56;5074757;28;20121;-80
2022/06/06 02:30:42;;;;;;;7.28;3.00;;;;;;;-141.50;100.00;63355.56;5070420;28;20074;-81
2022/06/06 02:33:09;;;;;;;4.13;2.83;;;;;;;-141.50;100.00;63355.56;5071855;28;20493;-80
2022/06/06 02:35:38;;;;;;;4.07;2.40;;;;;;;-141.50;100.00;63355.56;5055459;28;20486;-79
2022/06/06 02:38:06;;;;;;;3.67;2.80;;;;;;;-141.50;100.00;63355.56;5084283;28;20095;-79
2022/06/06 02:40:32;;;;;;;5.15;2.67;;;;;;;-141.50;100.00;63355.56;5052449;28;20474;-81
2022/06/06 02:42:59;;;;;;;4.22;2.60;;;;;;;-141.50;100.00;63355.56;5070284;28;20064;-80
2022/06/06 02:45:26;;;;;;;6.03;2.70;;;;;;;-141.50;100.00;63355.56;5071321;28;20052;-80
2022/06/06 02:47:55;;;;;;;5.30;2.70;;;;;;;-141.50;100.00;63355.56;5072114;28;20048;-80
2022/06/06 02:50:25;;;;;;;3.70;2.60;;;;;;;-141.50;100.00;63355.56;5074180;28;20055;-80
2022/06/06 02:52:53;;;;;;;4.60;2.50;;;;;;;-141.50;100.00;63355.56;5055864;28;20044;-80
2022/06/06 02:55:20;;;;;;;6.43;2.90;;;;;;;-141.50;100.00;63355.56;5074362;28;20102;-80
2022/06/06 02:57:52;;;;;;;6.68;2.60;;;;;;;-141.50;100.00;63355.56;5071929;28;20048;-79
2022/06/06 03:00:24;;;;;;;6.55;2.78;;;;;;;-141.50;100.00;63355.56;5055132;28;20056;-79
2022/06/06 03:02:51;;;;;;;4.13;2.55;;;;;;;-141.50;100.00;63355.56;5074424;28;20083;-79
2022/06/06 03:05:18;;;;;;;6.00;2.80;;;;;;;-141.50;100.00;63355.56;5073949;28;20174;-80
2022/06/06 03:08:02;;;;;;;3.50;2.58;;;;;;;-141.50;100.00;63355.56;5076232;28;20055;-78
2022/06/06 03:10:37;;;;;;;3.88;2.50;;;;;;;-141.50;100.00;63355.56;5093294;28;20052;-79
2022/06/06 03:13:41;;;;;;;3.40;2.53;;;;;;;-141.50;100.00;63355.56;5084547;28;20044;-80
2022/06/06 03:23:08;;;;;;;5.85;2.50;;;;;;;-141.50;100.00;63355.56;4988672;28;20066;-80
2022/06/06 03:25:38;;;;;;;5.60;2.55;;;;;;;-141.50;100.00;63355.56;5065602;28;20083;-79
2022/06/06 03:28:31;;;;;;;5.22;2.60;;;;;;;-141.50;100.00;63355.56;5053413;28;20114;-79
2022/06/06 03:31:04;;;;;;;4.78;2.35;;;;;;;-141.50;100.00;63355.56;5071580;28;20099;-79
2022/06/06 03:33:42;;;;;;;4.65;2.50;;;;;;;-141.50;100.00;63355.56;5073756;28;20049;-80
2022/06/06 03:36:30;;;;;;;3.85;2.30;;;;;;;-141.50;100.00;63355.56;5073800;28;20045;-79
2022/06/06 03:39:06;;;;;;;5.00;2.53;;;;;;;-141.50;100.00;63355.56;5072090;28;20052;-80
2022/06/06 03:41:55;;;;;;;4.55;2.40;;;;;;;-141.50;100.00;63355.56;5069999;28;20072;-79
2022/06/06 03:44:51;;;;;;;4.38;2.30;;;;;;;-141.50;100.00;63355.56;5073333;28;20052;-80
2022/06/06 03:47:30;;;;;;;5.90;2.22;;;;;;;-141.50;100.00;63355.56;5080484;28;20310;-79
2022/06/06 03:50:13;;;;;;;8.82;2.30;;;;;;;-141.50;100.00;63355.56;5058020;28;20062;-77
2022/06/06 03:52:46;;;;;;;5.20;2.17;;;;;;;-141.50;100.00;63355.56;5082048;28;20053;-78
2022/06/06 03:55:53;;;;;;;5.80;2.13;;;;;;;-141.50;100.00;63355.56;5078104;28;20061;-80
2022/06/06 03:58:21;;;;;;;6.70;2.33;;;;;;;-141.50;100.00;63355.56;5082559;28;20072;-80
2022/06/06 04:00:49;;;;;;;7.25;2.20;;;;;;;-141.50;100.00;63355.56;5068220;28;20049;-80
2022/06/06 04:03:16;;;;;;;3.75;1.88;;;;;;;-141.50;100.00;63355.56;5069364;28;20519;-81
2022/06/06 04:05:43;;;;;;;3.97;2.25;;;;;;;-141.50;100.00;63355.56;5072135;28;20049;-80
2022/06/06 04:08:09;;;;;;;3.67;2.38;;;;;;;-141.50;100.00;63355.56;5056067;28;20052;-80
2022/06/06 04:10:57;;;;;;;4.07;2.30;;;;;;;-141.50;100.00;63355.56;5074004;28;20125;-79
2022/06/06 04:13:52;;;;;;;3.35;2.40;;;;;;;-141.50;100.00;63355.56;5074353;28;20048;-82
2022/06/06 04:16:40;;;;;;;3.80;2.08;;;;;;;-141.50;100.00;63355.56;5057283;28;20049;-82
2022/06/06 04:19:41;;;;;;;4.05;2.20;;;;;;;-141.50;100.00;63355.56;5074057;28;20056;-79
2022/06/06 04:22:22;;;;;;;4.30;2.38;;;;;;;-141.50;100.00;63355.56;5062981;28;20084;-79
2022/06/06 04:25:07;;;;;;;3.75;2.10;;;;;;;-141.50;100.00;63355.56;5071601;28;20479;-79
2022/06/06 04:27:55;;;;;;;2.75;1.98;;;;;;;-141.50;100.00;63355.56;5072831;28;20048;-79
2022/06/06 04:30:42;;;;;;;5.55;2.28;;;;;;;-141.50;100.00;63355.56;5071531;28;20048;-80
2022/06/06 04:33:23;;;;;;;5.68;2.30;;;;;;;-141.50;100.00;63355.56;5071004;28;20072;-79
2022/06/06 04:36:06;;;;;;;5.05;2.10;;;;;;;-141.50;100.00;63355.56;5071155;28;20049;-80
2022/06/06 04:39:01;;;;;;;2.63;2.00;;;;;;;-141.50;100.00;63355.56;5073305;28;20056;-80
2022/06/06 04:41:42;;;;;;;5.20;1.95;;;;;;;-141.50;100.00;63355.56;5073329;28;20438;-77
2022/06/06 04:44:15;;;;;;;3.50;2.08;;;;;;;-141.50;100.00;63355.56;5065638;28;20484;-79
2022/06/06 04:46:42;;;;;;;4.25;2.10;;;;;;;-141.50;100.00;63355.56;5072581;28;20131;-78
2022/06/06 04:49:11;;;;;;;3.47;2.03;;;;;;;-141.50;100.00;63355.56;5054538;28;20052;-79
2022/06/06 04:51:41;;;;;;;3.45;1.98;;;;;;;-141.50;100.00;63355.56;5072320;28;20246;-79
2022/06/06 04:54:12;;;;;;;3.67;1.98;;;;;;;-141.50;100.00;63355.56;5058526;28;20048;-78
2022/06/06 04:56:39;;;;;;;2.05;1.50;;;;;;;-141.50;100.00;63355.56;5079988;28;20056;-79
2022/06/06 04:59:10;;;;;;;2.72;1.80;;;;;;;-141.50;100.00;63355.56;5080274;28;20048;-78
2022/06/06 05:01:38;;;;;;;3.35;1.63;;;;;;;-141.50;100.00;63355.56;5076752;28;20049;-78
2022/06/06 05:04:04;;;;;;;2.83;1.90;;;;;;;-141.50;100.00;63355.56;5077048;28;20080;-77
2022/06/06 05:06:58;;;;;;;2.33;1.60;;;;;;;-141.50;100.00;63355.56;5080363;28;20153;-79
2022/06/06 05:09:52;;;;;;;2.08;1.63;;;;;;;-141.50;100.00;63355.56;5085603;28;20049;-77
2022/06/06 05:12:54;;;;;;;3.70;1.65;;;;;;;-141.50;100.00;63355.56;5057664;28;20086;-80
2022/06/06 05:15:29;;;;;;;4.07;1.50;;;;;;;-141.50;100.00;63355.56;5063398;28;20045;-80
2022/06/06 05:18:17;;;;;;;3.55;1.15;;;;;;;-141.50;100.00;63355.56;5076576;28;20083;-81
2022/06/06 05:21:21;;;;;;;3.40;1.48;;;;;;;-141.50;100.00;63355.56;5078824;28;20048;-77
2022/06/06 05:23:59;;;;;;;3.83;1.35;;;;;;;-141.50;100.00;63355.56;5082827;28;20102;-79
2022/06/06 05:26:51;;;;;;;3.80;1.60;;;;;;;-141.50;100.00;63355.56;5053763;28;20053;-79
2022/06/06 05:29:24;;;;;;;4.10;1.55;;;;;;;-141.50;100.00;63355.56;5040154;28;20205;-79
2022/06/06 05:32:05;;;;;;;2.60;1.60;;;;;;;-141.50;100.00;63355.56;5074081;28;20048;-79
2022/06/06 05:34:43;;;;;;;2.95;1.70;;;;;;;-141.50;100.00;63355.56;5093393;28;20068;-80
2022/06/06 05:37:41;;;;;;;4.63;1.60;;;;;;;-141.50;100.00;63355.56;5096606;28;20093;-76
2022/06/06 05:40:07;;;;;;;2.53;1.65;;;;;;;-141.50;100.00;63355.56;5087545;28;20129;-79
2022/06/06 05:42:52;;;;;;;2.90;1.77;;;;;;;-141.50;100.00;63355.56;5091255;28;20052;-78
2022/06/06 05:45:39;;;;;;;2.63;1.52;;;;;;;-141.50;100.00;63355.56;5088290;28;20052;-82
2022/06/06 05:48:25;;;;;;;2.97;1.70;;;;;;;-141.50;100.00;63355.56;5085058;28;20048;-79
2022/06/06 05:51:20;;;;;;;2.70;1.88;;;;;;;-141.50;100.00;63355.56;5086146;28;20048;-80
2022/06/06 05:54:21;;;;;;;2.25;1.75;;;;;;;-141.50;100.00;63355.56;5068575;28;20087;-79
2022/06/06 05:56:51;;;;;;;3.20;1.63;;;;;;;-141.50;100.00;63355.56;5081764;28;20051;-79
2022/06/06 05:59:50;;;;;;;3.58;2.05;;;;;;;-141.50;100.00;63355.56;5086612;28;20048;-78
2022/06/06 06:02:39;;;;;;;3.95;1.85;;;;;;;-141.50;100.00;63355.56;5083355;28;20044;-80
2022/06/06 06:05:23;;;;;;;3.67;2.13;;;;;;;-141.50;100.00;63355.56;5078630;28;20391;-78
2022/06/06 06:08:09;;;;;;;2.25;1.70;;;;;;;-141.50;100.00;63355.56;5068942;28;20197;-81
2022/06/06 06:10:50;;;;;;;4.07;1.83;;;;;;;-141.50;100.00;63355.56;5072179;28;20052;-78
2022/06/06 06:13:31;;;;;;;4.28;1.80;;;;;;;-141.50;100.00;63355.56;5074888;28;20045;-79
2022/06/06 06:16:03;;;;;;;4.93;1.70;;;;;;;-141.50;100.00;63355.56;5070814;28;20056;-80
2022/06/06 06:18:47;;;;;;;2.28;1.65;;;;;;;-141.50;100.00;63355.56;5072126;28;20098;-81
2022/06/06 06:21:38;;;;;;;2.53;1.85;;;;;;;-141.50;100.00;63355.56;5069996;28;20056;-80
2022/06/06 06:24:12;;;;;;;2.72;1.60;;;;;;;-141.50;100.00;63355.56;5068790;28;20048;-79
2022/06/06 06:26:39;;;;;;;8.23;2.00;;;;;;;-141.50;100.00;63355.56;5073939;28;20048;-79
2022/06/06 06:29:09;;;;;;;2.22;1.60;;;;;;;-141.50;100.00;63355.56;5054191;28;20052;-80
2022/06/06 06:31:50;;;;;;;2.65;1.40;;;;;;;-141.50;100.00;63355.56;5070458;28;20102;-79
2022/06/06 06:34:26;;;;;;;2.78;1.45;;;;;;;-141.50;100.00;63355.56;5072694;28;20044;-78
2022/06/06 06:37:22;;;;;;;3.03;1.30;;;;;;;-141.50;100.00;63355.56;5075276;28;20056;-79
2022/06/06 06:40:30;;;;;;;3.20;1.60;;;;;;;-141.50;100.00;63355.56;5055684;28;20336;-79
2022/06/06 06:43:02;;;;;;;2.75;1.40;;;;;;;-141.50;100.00;63355.56;5055173;28;20063;-80
2022/06/06 06:45:38;;;;;;;2.00;1.40;;;;;;;-141.50;100.00;63355.56;5063900;28;20070;-78
2022/06/06 06:48:12;;;;;;;1.63;1.30;;;;;;;-141.50;100.00;63355.56;5066279;28;20048;-78
2022/06/06 06:51:01;;;;;;;2.35;1.70;;;;;;;-141.50;100.00;63355.56;5049677;28;20095;-78
2022/06/06 06:53:57;;;;;;;2.42;1.52;;;;;;;-141.50;100.00;63355.56;5064664;28;20052;-80
2022/06/06 06:56:39;;;;;;;2.80;1.52;;;;;;;-141.50;100.00;63355.56;5046486;28;20102;-77
2022/06/06 06:59:06;;;;;;;2.80;1.52;;;;;;;-141.50;100.00;63355.56;5032991;28;20059;-79
2022/06/06 07:11:10;;;;;;;2.47;1.52;;;;;;;-141.50;100.00;63355.56;5067523;28;20083;-77
2022/06/06 07:14:07;;;;;;;2.85;1.40;;;;;;;-141.50;100.00;63355.56;5057031;28;20470;-77
2022/06/06 07:16:39;;;;;;;3.53;1.58;;;;;;;-141.50;100.00;63355.56;5086198;28;20056;-81
2022/06/06 07:19:19;;;;;;;3.42;1.35;;;;;;;-141.50;100.00;63355.56;5058343;28;20049;-81
2022/06/06 07:21:49;;;;;;;1.88;1.30;;;;;;;-141.50;100.00;63355.56;5097341;28;20068;-82
2022/06/06 07:24:19;;;;;;;3.03;1.50;;;;;;;-141.50;100.00;63355.56;5106999;28;20032;-82
2022/06/06 07:26:47;;;;;;;3.67;1.40;;;;;;;-141.50;100.00;63355.56;5073279;28;20079;-80
2022/06/06 07:29:18;;;;;;;2.28;1.30;;;;;;;-141.50;100.00;63355.56;5083309;28;20135;-80
2022/06/06 07:32:03;;;;;;;4.88;1.67;;;;;;;-141.50;100.00;63355.56;5070845;28;20040;-77
2022/06/06 07:34:55;;;;;;;2.77;1.50;;;;;;;-141.50;100.00;63355.56;5090993;28;20044;-80
2022/06/06 07:37:47;;;;;;;2.22;1.42;;;;;;;-141.50;100.00;63355.56;5088644;28;20055;-80
2022/06/06 07:40:38;;;;;;;2.90;1.60;;;;;;;-141.50;100.00;63355.56;5088637;28;20032;-79
2022/06/06 07:43:11;;;;;;;1.95;1.55;;;;;;;-141.50;100.00;63355.56;5067102;28;20110;-80
2022/06/06 07:45:53;;;;;;;4.72;1.70;;;;;;;-141.50;100.00;63355.56;5080383;28;20045;-80
2022/06/06 07:48:38;;;;;;;2.33;1.63;;;;;;;-141.50;100.00;63355.56;5076836;28;20125;-82
2022/06/06 07:51:29;;;;;;;3.97;1.60;;;;;;;-141.50;100.00;63355.56;5063363;28;20055;-81
2022/06/06 07:54:14;;;;;;;2.50;1.60;;;;;;;-141.50;100.00;63355.56;5051709;28;20094;-75
2022/06/06 07:57:01;;;;;;;4.05;1.92;;;;;;;-141.50;100.00;63355.56;5068223;28;20087;-73
2022/06/06 07:59:47;;;;;;;3.55;1.60;;;;;;;-141.50;100.00;63355.56;5068444;28;20095;-75
2022/06/06 08:02:51;;;;;;;2.35;1.55;;;;;;;-141.50;100.00;63355.56;5052613;28;20049;-73
2022/06/06 08:05:18;;;;;;;3.78;1.67;;;;;;;-141.50;100.00;63355.56;5083862;28;20056;-75
2022/06/06 08:08:03;;;;;;;3.95;1.58;;;;;;;-141.50;100.00;63355.56;5094212;28;20537;-76
2022/06/06 08:10:44;;;;;;;1.90;1.70;;;;;;;-141.50;100.00;63355.56;5075871;28;20098;-81
2022/06/06 08:13:42;;;;;;;5.38;1.77;;;;;;;-141.50;100.00;63355.56;5086356;28;20157;-79
2022/06/06 08:16:31;;;;;;;3.40;1.95;;;;;;;-141.50;100.00;63355.56;5056368;28;20074;-79
2022/06/06 08:19:28;;;;;;;4.43;1.80;;;;;;;-141.50;100.00;63355.56;5057691;28;20123;-80
2022/06/06 08:21:56;;;;;;;4.40;1.95;;;;;;;-141.50;100.00;63355.56;5077261;28;20048;-78
2022/06/06 08:24:30;;;;;;;2.53;1.80;;;;;;;-141.50;100.00;63355.56;5074587;28;20079;-79
2022/06/06 08:27:15;;;;;;;2.58;1.83;;;;;;;-141.50;100.00;63355.56;5073343;28;20056;-79
2022/06/06 08:29:45;;;;;;;3.45;1.63;;;;;;;-141.50;100.00;63355.56;5058438;28;20482;-79
2022/06/06 08:32:13;;;;;;;3.92;1.70;;;;;;;-141.50;100.00;63355.56;5057208;28;20052;-80
2022/06/06 08:34:40;;;;;;;3.15;2.03;;;;;;;-141.50;100.00;63355.56;5076810;28;20085;-79
2022/06/06 08:37:10;;;;;;;4.10;1.70;;;;;;;-141.50;100.00;63355.56;5079664;28;20048;-81
2022/06/06 08:40:02;;;;;;;2.60;1.42;;;;;;;-141.50;100.00;63355.56;5077970;28;20072;-80
2022/06/06 08:42:44;;;;;;;3.42;1.58;;;;;;;-141.50;100.00;63355.56;5079292;28;20079;-78
2022/06/06 08:45:25;;;;;;;3.15;1.80;;;;;;;-141.50;100.00;63355.56;5063534;28;20072;-79
2022/06/06 08:48:04;;;;;;;2.97;1.50;;;;;;;-141.50;100.00;63355.56;5079266;28;20311;-78
2022/06/06 08:50:59;;;;;;;4.93;2.08;;;;;;;-141.50;100.00;63355.56;5079708;28;20048;-77
2022/06/06 08:54:04;;;;;;;3.33;1.63;;;;;;;-141.50;100.00;63355.56;5087974;28;20044;-77
2022/06/06 08:56:55;;;;;;;7.35;1.90;;;;;;;-141.50;100.00;63355.56;5085747;28;20056;-79
2022/06/06 08:59:22;;;;;;;3.22;1.80;;;;;;;-141.50;100.00;63355.56;5076302;28;20064;-79
2022/06/06 09:02:12;;;;;;;3.67;1.85;;;;;;;-141.50;100.00;63355.56;5072444;28;20076;-78
2022/06/06 09:05:16;;;;;;;6.10;1.90;;;;;;;-141.50;100.00;63355.56;5077131;28;20677;-77
2022/06/06 09:08:00;;;;;;;6.25;2.08;;;;;;;-141.50;100.00;63355.56;5085196;28;20091;-78
2022/06/06 09:10:33;;;;;;;3.83;1.90;;;;;;;-141.50;100.00;63355.56;5090107;28;20072;-78
2022/06/06 09:13:31;;;;;;;3.75;1.88;;;;;;;-141.50;100.00;63355.56;5071794;28;20048;-77
2022/06/06 09:16:17;;;;;;;4.07;2.08;;;;;;;-141.50;100.00;63355.56;5070345;28;20074;-76
2022/06/06 09:19:18;;;;;;;5.07;1.90;;;;;;;-141.50;100.00;63355.56;5088771;28;20414;-78
2022/06/06 09:21:51;;;;;;;3.88;1.92;;;;;;;-141.50;100.00;63355.56;5084025;28;20064;-78
2022/06/06 09:25:12;;;;;;;3.72;1.83;;;;;;;-141.50;100.00;63355.56;5063109;28;20084;-79
2022/06/06 09:27:48;;;;;;;3.25;1.90;;;;;;;-141.50;100.00;63355.56;5003931;28;20065;-79
2022/06/06 09:30:26;;;;;;;3.25;2.03;;;;;;;-141.50;100.00;63355.56;5069541;28;20048;-78
2022/06/06 09:33:05;;;;;;;2.88;1.98;;;;;;;-141.50;100.00;63355.56;5078915;28;20045;-78
2022/06/06 09:36:14;;;;;;;3.40;1.75;;;;;;;-141.50;100.00;63355.56;5082270;28;20047;-77
2022/06/06 09:39:09;;;;;;;2.63;1.80;;;;;;;-141.50;100.00;63355.56;5085177;28;20083;-77
2022/06/06 09:41:39;;;;;;;2.67;1.88;;;;;;;-141.50;100.00;63355.56;5028691;28;20059;-79
2022/06/06 09:44:33;;;;;;;6.43;2.17;;;;;;;-141.50;100.00;63355.56;5063173;28;20052;-80
2022/06/06 09:47:35;;;;;;;6.13;1.85;;;;;;;-141.50;100.00;63355.56;5081027;28;20052;-80
2022/06/06 09:50:08;;;;;;;3.42;1.80;;;;;;;-141.50;100.00;63355.56;5063075;28;20108;-80
2022/06/06 09:52:53;;;;;;;3.50;1.50;;;;;;;-141.50;100.00;63355.56;5078957;28;20072;-79
2022/06/06 09:59:06;;;;;;;2.30;1.50;;;;;;;-141.50;100.00;63355.56;5071825;28;20048;-79
2022/06/06 10:02:01;;;;;;;6.97;1.92;;;;;;;-141.50;100.00;63355.56;5059176;28;20040;-77
2022/06/06 10:04:33;;;;;;;3.40;1.70;;;;;;;-141.50;100.00;63355.56;5079661;28;20114;-78
2022/06/06 10:07:31;;;;;;;6.25;1.48;;;;;;;-141.50;100.00;63355.56;5077902;28;20048;-79
2022/06/06 10:10:01;;;;;;;2.30;1.60;;;;;;;-141.50;100.00;63355.56;5077840;28;20072;-81
2022/06/06 10:12:46;;;;;;;2.95;1.55;;;;;;;-141.50;100.00;63355.56;5077145;28;20075;-79
2022/06/06 10:15:50;;;;;;;5.82;1.83;;;;;;;-141.50;100.00;63355.56;5077936;28;20048;-77
2022/06/06 10:18:26;;;;;;;5.15;1.55;;;;;;;-141.50;100.00;63355.56;5078452;28;20078;-79
2022/06/06 10:21:05;;;;;;;2.40;1.38;;;;;;;-141.50;100.00;63355.56;5060081;28;20535;-80
2022/06/06 10:23:43;;;;;;;3.10;1.50;;;;;;;-141.50;100.00;63355.56;5079805;28;20079;-78
2022/06/06 10:26:38;;;;;;;3.50;1.50;;;;;;;-141.50;100.00;63355.56;5071777;28;20051;-76
2022/06/06 10:29:07;;;;;;;3.03;1.42;;;;;;;-141.50;100.00;63355.56;5067586;28;20044;-77
2022/06/06 10:31:53;;;;;;;4.70;1.33;;;;;;;-141.50;100.00;63355.56;5051057;28;20502;-77
2022/06/06 10:34:58;;;;;;;2.67;1.20;;;;;;;-141.50;100.00;63355.56;5073935;28;20041;-77
2022/06/06 10:37:57;;;;;;;3.60;1.40;;;;;;;-141.50;100.00;63355.56;5060911;28;20051;-78
2022/06/06 10:40:45;;;;;;;4.13;1.55;;;;;;;-141.50;100.00;63355.56;5058618;28;20067;-79
2022/06/06 10:43:30;;;;;;;2.88;1.50;;;;;;;-141.50;100.00;63355.56;5077498;28;20106;-75
2022/06/06 10:46:22;;;;;;;3.33;1.35;;;;;;;-141.50;100.00;63355.56;5088671;28;20071;-78
2022/06/06 10:49:14;;;;;;;1.83;1.38;;;;;;;-141.50;100.00;63355.56;5090592;28;20114;-77
2022/06/06 10:51:52;;;;;;;2.97;1.50;;;;;;;-141.50;100.00;63355.56;5092532;28;20143;-75
2022/06/06 10:55:00;;;;;;;2.15;1.40;;;;;;;-141.50;100.00;63355.56;5090431;28;20459;-77
2022/06/06 10:57:48;;;;;;;4.30;1.45;;;;;;;-141.50;100.00;63355.56;5043473;28;20052;-79
2022/06/06 11:00:22;;;;;;;3.03;1.38;;;;;;;-141.50;100.00;63355.56;5072269;28;20144;-78
2022/06/06 11:03:12;;;;;;;3.10;1.50;;;;;;;-141.50;100.00;63355.56;5094115;28;20138;-79
2022/06/06 11:06:03;;;;;;;5.93;1.70;;;;;;;-141.50;100.00;63355.56;5090794;28;20575;-80
2022/06/06 11:08:48;;;;;;;2.10;1.40;;;;;;;-141.50;100.00;63355.56;5077875;28;20079;-80
2022/06/06 11:11:26;;;;;;;5.82;1.45;;;;;;;-141.50;100.00;63355.56;5080510;28;20074;-82
2022/06/06 11:14:37;;;;;;;2.15;1.30;;;;;;;-141.50;100.00;63355.56;5062440;28;20082;-80
2022/06/06 11:17:31;;;;;;;3.63;1.50;;;;;;;-141.50;100.00;63355.56;4986361;28;20129;-76
2022/06/06 11:20:55;;;;;;;3.80;1.50;;;;;;;-141.50;100.00;63355.56;5077166;28;20049;-77
2022/06/06 11:24:07;;;;;;;2.55;1.60;;;;;;;-141.50;100.00;63355.56;4985268;28;20051;-78
2022/06/06 11:26:51;;;;;;;4.63;1.58;;;;;;;-141.50;100.00;63355.56;4987455;28;20069;-79
2022/06/06 11:29:27;;;;;;;3.47;1.45;;;;;;;-141.50;100.00;63355.56;5088854;28;20048;-80
2022/06/06 11:32:20;;;;;;;4.22;1.60;;;;;;;-141.50;100.00;63355.56;5097533;28;20102;-79
2022/06/06 11:35:23;;;;;;;2.33;1.30;;;;;;;-141.50;100.00;63355.56;5077287;28;20048;-81
2022/06/06 11:38:11;;;;;;;3.13;1.40;;;;;;;-141.50;100.00;63355.56;5078478;28;20077;-79
2022/06/06 11:41:00;;;;;;;1.80;1.40;;;;;;;-141.50;100.00;63355.56;5097952;28;20048;-80
2022/06/06 11:43:58;;;;;;;2.38;1.40;;;;;;;-141.50;100.00;63355.56;5099919;28;20170;-78
2022/06/06 11:46:28;;;;;;;3.40;1.65;;;;;;;-141.50;100.00;63355.56;5098726;28;20138;-79
2022/06/06 11:49:22;;;;;;;3.03;1.60;;;;;;;-141.50;100.00;63355.56;5090669;28;20113;-78
2022/06/06 11:52:04;;;;;;;1.55;1.45;;;;;;;-141.50;100.00;63355.56;5091319;28;20088;-78
2022/06/06 11:54:55;;;;;;;3.30;1.60;;;;;;;-141.50;100.00;63355.56;5073042;28;20083;-80
2022/06/06 11:57:34;;;;;;;4.57;1.40;;;;;;;-141.50;100.00;63355.56;5090884;28;20060;-77
2022/06/06 12:00:22;;;;;;;2.00;1.40;;;;;;;-141.50;100.00;63355.56;5100571;28;20455;-77
2022/06/06 12:03:01;;;;;;;2.88;1.40;;;;;;;-141.50;100.00;63355.56;5084285;28;20079;-78
2022/06/06 12:05:46;;;;;;;3.50;1.60;;;;;;;-141.50;100.00;63355.56;5077885;28;20044;-79
2022/06/06 12:08:39;;;;;;;2.05;1.40;;;;;;;-141.50;100.00;63355.56;5097146;28;20048;-77
2022/06/06 12:11:34;;;;;;;2.72;1.50;;;;;;;-141.50;100.00;63355.56;5096022;28;20044;-78
2022/06/06 12:14:33;;;;;;;4.10;1.48;;;;;;;-141.50;100.00;63355.56;5070604;28;20052;-77
2022/06/06 12:17:24;;;;;;;3.83;1.55;;;;;;;-141.50;100.00;63355.56;5012640;28;20071;-80
2022/06/06 12:19:58;;;;;;;2.97;1.75;;;;;;;-141.50;100.00;63355.56;5076034;28;20052;-77
2022/06/06 12:22:37;;;;;;;1.98;1.60;;;;;;;-141.50;100.00;63355.56;5083381;28;20122;-76
2022/06/06 12:25:26;;;;;;;3.40;1.40;;;;;;;-141.50;100.00;63355.56;5070181;28;20060;-77
2022/06/06 12:28:40;;;;;;;2.28;1.50;;;;;;;-141.50;100.00;63355.56;5082260;28;20048;-81
2022/06/06 12:31:19;;;;;;;4.15;1.52;;;;;;;-141.50;100.00;63355.56;5029763;28;20729;-78
2022/06/06 12:33:59;;;;;;;2.85;1.70;;;;;;;-141.50;100.00;63355.56;5077867;28;20563;-77